createdAt,value
2022-10-17T00:00:54.811Z,17.00
2022-10-17T00:03:23.091Z,20.75
2022-10-17T00:05:51.198Z,21.75
2022-10-17T00:08:20.076Z,23.50
2022-10-17T00:10:56.867Z,20.00
2022-10-17T00:13:26.471Z,24.50
2022-10-17T00:15:54.887Z,18.50
2022-10-17T00:18:23.163Z,26.50
2022-10-17T00:20:51.409Z,27.25
2022-10-17T00:23:19.658Z,29.20
2022-10-17T00:25:47.788Z,30.40
2022-10-17T00:28:17.051Z,31.00
2022-10-17T00:30:46.666Z,28.80
2022-10-17T00:33:14.792Z,26.25
2022-10-17T00:35:42.944Z,21.75
2022-10-17T00:38:11.790Z,20.50
2022-10-17T00:40:40.520Z,15.50
2022-10-17T00:43:14.752Z,20.75
2022-10-17T00:45:43.164Z,15.75
2022-10-17T00:48:18.876Z,18.00
2022-10-17T00:50:50.183Z,17.25
2022-10-17T00:53:19.886Z,13.50
2022-10-17T00:55:50.266Z,16.50
2022-10-17T00:58:18.795Z,19.00
2022-10-17T01:00:47.490Z,18.00
2022-10-17T01:03:18.042Z,18.25
2022-10-17T01:05:47.661Z,27.60
2022-10-17T01:08:15.858Z,33.40
2022-10-17T01:10:47.964Z,24.00
2022-10-17T01:13:21.523Z,22.25
2022-10-17T01:15:54.125Z,17.00
2022-10-17T01:18:30.499Z,18.00
2022-10-17T01:21:10.860Z,18.00
2022-10-17T01:23:55.731Z,14.00
2022-10-17T01:26:29.083Z,15.50
2022-10-17T01:29:16.575Z,14.50
2022-10-17T01:31:48.780Z,11.75
2022-10-17T01:34:19.803Z,12.00
2022-10-17T01:36:52.469Z,14.00
2022-10-17T01:39:25.887Z,13.50
2022-10-17T01:41:59.085Z,11.75
2022-10-17T01:44:30.565Z,14.25
2022-10-17T01:47:03.410Z,17.00
2022-10-17T01:49:33.225Z,28.00
2022-10-17T01:52:05.387Z,34.50
2022-10-17T01:54:35.270Z,27.00
2022-10-17T01:57:05.993Z,27.00
2022-10-17T01:59:38.378Z,26.00
2022-10-17T02:02:09.242Z,23.00
2022-10-17T02:04:37.705Z,23.50
2022-10-17T02:07:09.615Z,19.50
2022-10-17T02:09:38.803Z,21.25
2022-10-17T02:12:29.245Z,23.40
2022-10-17T02:15:05.174Z,21.75
2022-10-17T02:17:43.818Z,18.75
2022-10-17T02:20:17.169Z,17.50
2022-10-17T02:22:48.122Z,14.00
2022-10-17T02:25:27.109Z,13.25
2022-10-17T02:28:02.068Z,14.00
2022-10-17T02:30:34.823Z,12.00
2022-10-17T02:33:08.915Z,10.75
2022-10-17T02:35:39.059Z,17.75
2022-10-17T02:38:09.748Z,21.00
2022-10-17T02:40:38.641Z,11.75
2022-10-17T02:43:06.924Z,15.25
2022-10-17T02:45:38.699Z,18.25
2022-10-17T02:48:10.957Z,20.50
2022-10-17T02:50:44.831Z,25.50
2022-10-17T02:53:15.834Z,24.20
2022-10-17T02:55:49.011Z,22.50
2022-10-17T02:58:20.191Z,15.50
2022-10-17T03:00:48.953Z,13.50
2022-10-17T03:03:22.801Z,15.00
2022-10-17T03:05:52.275Z,15.00
2022-10-17T03:08:24.126Z,15.50
2022-10-17T03:10:52.605Z,16.00
2022-10-17T03:13:22.462Z,14.50
2022-10-17T03:15:51.327Z,7.00
2022-10-17T03:18:19.395Z,13.50
2022-10-17T03:20:50.927Z,15.25
2022-10-17T03:23:19.099Z,14.00
2022-10-17T03:25:47.496Z,18.00
2022-10-17T03:28:17.108Z,31.80
2022-10-17T03:30:45.532Z,31.60
2022-10-17T03:33:13.747Z,39.80
2022-10-17T03:35:42.027Z,33.40
2022-10-17T03:38:12.781Z,25.00
2022-10-17T03:40:41.044Z,27.25
2022-10-17T03:43:11.465Z,16.00
2022-10-17T03:45:41.343Z,16.00
2022-10-17T03:48:09.484Z,16.50
2022-10-17T03:50:37.583Z,5.00
2022-10-17T03:53:05.815Z,14.00
2022-10-17T03:55:35.660Z,14.25
2022-10-17T03:58:04.056Z,16.75
2022-10-17T04:00:32.423Z,15.25
2022-10-17T04:03:00.593Z,18.25
2022-10-17T04:05:28.848Z,16.25
2022-10-17T04:08:00.996Z,19.50
2022-10-17T04:10:53.864Z,19.25
2022-10-17T04:13:22.177Z,21.25
2022-10-17T04:15:55.336Z,17.60
2022-10-17T04:18:23.762Z,22.50
2022-10-17T04:20:52.141Z,21.75
2022-10-17T04:23:21.480Z,13.25
2022-10-17T04:25:56.763Z,13.00
2022-10-17T04:28:26.227Z,12.00
2022-10-17T04:30:57.986Z,13.00
2022-10-17T04:33:27.329Z,15.00
2022-10-17T04:35:59.533Z,16.25
2022-10-17T04:38:28.701Z,21.00
2022-10-17T04:41:03.224Z,20.25
2022-10-17T04:43:31.805Z,12.00
2022-10-17T04:46:00.227Z,20.75
2022-10-17T04:48:29.151Z,14.25
2022-10-17T04:50:57.589Z,15.50
2022-10-17T04:53:39.116Z,13.50
2022-10-17T04:56:13.024Z,16.00
2022-10-17T04:58:41.571Z,41.20
2022-10-17T05:01:10.825Z,11.50
2022-10-17T05:03:41.008Z,19.50
2022-10-17T05:06:10.645Z,18.50
2022-10-17T05:08:40.060Z,16.50
2022-10-17T05:11:16.350Z,15.00
2022-10-17T05:13:46.233Z,16.25
2022-10-17T05:16:15.007Z,18.50
2022-10-17T05:18:43.695Z,16.50
2022-10-17T05:21:12.310Z,14.25
2022-10-17T05:23:41.179Z,14.00
2022-10-17T05:26:09.559Z,13.50
2022-10-17T05:28:38.021Z,13.00
2022-10-17T05:31:09.012Z,16.00
2022-10-17T05:33:37.710Z,15.50
2022-10-17T05:36:06.650Z,12.00
2022-10-17T05:38:35.229Z,13.00
2022-10-17T05:41:05.203Z,16.25
2022-10-17T05:43:35.918Z,16.25
2022-10-17T05:46:12.720Z,9.00
2022-10-17T05:48:42.428Z,14.75
2022-10-17T05:51:11.988Z,14.25
2022-10-17T05:53:42.310Z,13.75
2022-10-17T05:56:20.511Z,16.00
2022-10-17T05:58:53.290Z,14.00
2022-10-17T06:01:44.542Z,15.75
2022-10-17T06:04:14.404Z,7.00
2022-10-17T06:06:44.119Z,15.00
2022-10-17T06:09:17.257Z,15.00
2022-10-17T06:11:50.285Z,14.75
2022-10-17T06:14:18.839Z,15.75
2022-10-17T06:16:50.055Z,14.50
2022-10-17T06:19:20.542Z,10.50
2022-10-17T06:21:49.350Z,16.50
2022-10-17T06:24:22.238Z,14.75
2022-10-17T06:26:53.151Z,15.75
2022-10-17T06:29:22.905Z,15.50
2022-10-17T06:31:54.228Z,14.75
2022-10-17T06:34:23.979Z,14.25
2022-10-17T06:39:34.045Z,14.00
2022-10-17T06:42:23.206Z,15.00
2022-10-17T06:45:05.333Z,15.50
2022-10-17T06:47:40.498Z,16.00
2022-10-17T06:50:30.316Z,14.00
2022-10-17T06:53:14.637Z,14.75
2022-10-17T06:56:11.579Z,9.25
2022-10-17T06:59:00.034Z,13.25
2022-10-17T07:01:35.546Z,12.00
2022-10-17T07:04:05.993Z,10.75
2022-10-17T07:06:37.126Z,16.00
2022-10-17T07:09:19.028Z,15.00
2022-10-17T07:11:47.565Z,10.75
2022-10-17T07:14:19.240Z,17.00
2022-10-17T07:16:48.673Z,13.25
2022-10-17T07:19:28.361Z,14.00
2022-10-17T07:21:58.354Z,13.00
2022-10-17T07:24:27.158Z,12.50
2022-10-17T07:27:01.442Z,16.50
2022-10-17T07:29:30.546Z,16.25
2022-10-17T07:32:08.801Z,19.50
2022-10-17T07:34:37.487Z,15.25
2022-10-17T07:37:10.411Z,4.00
2022-10-17T07:39:41.169Z,11.50
2022-10-17T07:42:09.428Z,15.75
2022-10-17T07:44:37.849Z,11.25
2022-10-17T07:47:07.600Z,6.75
2022-10-17T07:49:42.548Z,13.00
2022-10-17T07:52:12.867Z,15.75
2022-10-17T07:54:41.421Z,14.75
2022-10-17T07:57:10.200Z,12.25
2022-10-17T07:59:39.138Z,11.25
2022-10-17T08:02:36.501Z,11.50
2022-10-17T08:05:09.789Z,13.75
2022-10-17T08:07:53.628Z,13.25
2022-10-17T08:10:27.704Z,13.00
2022-10-17T08:12:56.317Z,15.00
2022-10-17T08:15:27.946Z,16.50
2022-10-17T08:18:00.407Z,18.25
2022-10-17T08:20:29.454Z,14.50
2022-10-17T08:22:59.243Z,14.50
2022-10-17T08:25:27.701Z,17.50
2022-10-17T08:27:55.812Z,16.00
2022-10-17T08:30:24.180Z,14.00
2022-10-17T08:32:53.089Z,16.00
2022-10-17T08:35:22.902Z,16.00
2022-10-17T08:37:53.563Z,16.50
2022-10-17T08:40:25.754Z,18.75
2022-10-17T08:43:17.396Z,18.00
2022-10-17T08:45:48.719Z,15.75
2022-10-17T08:48:23.511Z,19.75
2022-10-17T08:50:54.000Z,15.00
2022-10-17T08:53:24.490Z,18.25
2022-10-17T08:55:55.191Z,21.50
2022-10-17T08:58:25.174Z,18.00
2022-10-17T09:00:57.934Z,20.50
2022-10-17T09:03:34.178Z,25.25
2022-10-17T09:06:10.026Z,24.25
2022-10-17T09:08:45.354Z,28.00
2022-10-17T09:11:20.039Z,25.00
2022-10-17T09:13:59.174Z,23.75
2022-10-17T09:16:34.413Z,27.50
2022-10-17T09:19:12.173Z,30.00
2022-10-17T09:21:45.841Z,33.25
2022-10-17T09:24:21.065Z,26.25
2022-10-17T09:26:52.663Z,23.25
2022-10-17T09:29:32.362Z,22.25
2022-10-17T09:34:48.737Z,22.25
2022-10-17T09:37:18.143Z,15.00
2022-10-17T09:39:47.013Z,19.50
2022-10-17T09:42:19.400Z,24.75
2022-10-17T09:44:50.674Z,18.00
2022-10-17T09:47:29.966Z,19.50
2022-10-17T09:49:58.818Z,18.00
2022-10-17T09:52:29.865Z,28.75
2022-10-17T09:55:01.327Z,18.25
2022-10-17T09:57:52.449Z,13.25
2022-10-17T10:00:22.836Z,16.25
2022-10-17T10:03:09.601Z,16.75
2022-10-17T10:05:38.122Z,18.00
2022-10-17T10:08:14.957Z,19.50
2022-10-17T10:10:48.145Z,19.50
2022-10-17T10:13:26.360Z,19.00
2022-10-17T10:15:54.674Z,24.00
2022-10-17T10:18:32.722Z,21.00
2022-10-17T10:21:08.717Z,22.50
2022-10-17T10:23:40.677Z,23.00
2022-10-17T10:26:26.029Z,21.50
2022-10-17T10:28:58.439Z,17.25
2022-10-17T10:31:35.747Z,8.50
2022-10-17T10:34:12.578Z,23.50
2022-10-17T10:36:48.844Z,23.00
2022-10-17T10:39:35.436Z,23.00
2022-10-17T10:42:07.285Z,36.50
2022-10-17T10:44:38.876Z,25.00
2022-10-17T10:47:17.745Z,23.25
2022-10-17T10:49:48.448Z,21.50
2022-10-17T10:52:25.533Z,17.50
2022-10-17T10:55:00.931Z,25.75
2022-10-17T10:57:32.614Z,21.00
2022-10-17T11:00:10.586Z,25.50
2022-10-17T11:02:42.438Z,25.50
2022-10-17T11:05:14.454Z,27.25
2022-10-17T11:07:48.438Z,22.50
2022-10-17T11:10:20.381Z,18.00
2022-10-17T11:12:52.168Z,22.25
2022-10-17T11:15:27.109Z,17.50
2022-10-17T11:17:58.956Z,25.50
2022-10-17T11:20:32.432Z,17.00
2022-10-17T11:23:07.922Z,28.00
2022-10-17T11:25:37.669Z,25.50
2022-10-17T11:28:37.312Z,41.00
2022-10-17T11:31:09.450Z,22.00
2022-10-17T11:33:44.486Z,22.50
2022-10-17T11:36:13.529Z,25.75
2022-10-17T11:38:46.136Z,22.00
2022-10-17T11:41:17.568Z,23.75
2022-10-17T11:43:49.770Z,25.25
2022-10-17T11:46:29.497Z,23.25
2022-10-17T11:49:19.051Z,17.75
2022-10-17T11:52:02.346Z,20.50
2022-10-17T11:55:01.044Z,24.75
2022-10-17T11:57:37.573Z,22.25
2022-10-17T12:04:17.942Z,22.50
2022-10-17T12:06:56.681Z,18.00
2022-10-17T12:09:35.505Z,21.00
2022-10-17T12:12:04.906Z,22.00
2022-10-17T12:14:37.915Z,25.50
2022-10-17T12:17:33.001Z,13.00
2022-10-17T12:20:20.054Z,26.00
2022-10-17T12:22:50.635Z,24.00
2022-10-17T12:25:20.663Z,25.00
2022-10-17T12:27:50.354Z,19.00
2022-10-17T12:30:24.961Z,28.75
2022-10-17T12:33:06.258Z,22.50
2022-10-17T12:35:38.039Z,28.25
2022-10-17T12:38:25.917Z,26.75
2022-10-17T12:41:10.427Z,21.50
2022-10-17T12:43:45.419Z,28.75
2022-10-17T12:46:15.700Z,24.75
2022-10-17T12:49:27.715Z,31.00
2022-10-17T12:52:35.472Z,17.50
2022-10-17T12:55:16.357Z,27.50
2022-10-17T12:57:56.882Z,27.00
2022-10-17T13:00:33.275Z,26.00
2022-10-17T13:03:07.768Z,22.25
2022-10-17T13:05:38.756Z,27.75
2022-10-17T13:08:32.387Z,30.25
2022-10-17T13:11:01.461Z,31.25
2022-10-17T13:13:37.651Z,19.00
2022-10-17T13:16:06.786Z,28.00
2022-10-17T13:18:39.748Z,19.00
2022-10-17T13:21:16.131Z,18.50
2022-10-17T13:23:47.754Z,19.25
2022-10-17T13:26:20.323Z,31.50
2022-10-17T13:29:02.477Z,21.75
2022-10-17T13:32:21.895Z,22.50
2022-10-17T13:35:12.218Z,21.25
2022-10-17T13:37:54.055Z,26.25
2022-10-17T13:40:58.009Z,29.50
2022-10-17T13:43:53.517Z,14.50
2022-10-17T13:46:37.225Z,25.25
2022-10-17T13:49:14.228Z,29.50
2022-10-17T13:51:44.366Z,29.75
2022-10-17T13:54:19.646Z,27.50
2022-10-17T13:56:56.507Z,30.00
2022-10-17T13:59:32.417Z,30.25
2022-10-17T14:02:03.844Z,22.25
2022-10-17T14:04:44.687Z,20.50
2022-10-17T14:07:23.629Z,31.00
2022-10-17T14:09:54.108Z,31.00
2022-10-17T14:12:22.708Z,17.25
2022-10-17T14:15:09.894Z,25.75
2022-10-17T14:17:41.388Z,26.75
2022-10-17T14:24:16.931Z,27.75
2022-10-17T14:26:49.060Z,27.25
2022-10-17T14:30:10.703Z,18.50
2022-10-17T14:32:44.470Z,29.75
2022-10-17T14:47:45.638Z,32.60
2022-10-17T14:50:30.273Z,24.75
2022-10-17T14:53:05.009Z,37.60
2022-10-17T14:55:34.537Z,32.20
2022-10-17T14:58:11.122Z,29.75
2022-10-17T15:00:40.412Z,33.25
2022-10-17T15:03:15.744Z,29.75
2022-10-17T15:05:45.559Z,30.80
2022-10-17T15:08:20.142Z,21.25
2022-10-17T15:10:49.953Z,30.50
2022-10-17T15:13:28.248Z,18.25
2022-10-17T15:15:58.443Z,26.00
2022-10-17T15:18:33.110Z,31.50
2022-10-17T15:38:35.041Z,33.50
2022-10-17T15:41:13.495Z,17.75
2022-10-17T15:43:41.770Z,28.25
2022-10-17T15:46:14.578Z,26.75
2022-10-17T15:48:43.268Z,29.75
2022-10-17T15:51:14.762Z,29.00
2022-10-17T15:54:05.008Z,25.50
2022-10-17T15:56:36.492Z,25.00
2022-10-17T15:59:16.302Z,28.50
2022-10-17T16:01:45.396Z,24.25
2022-10-17T16:04:44.133Z,28.75
2022-10-17T16:07:14.460Z,29.75
2022-10-17T16:09:43.037Z,23.25
2022-10-17T16:12:15.363Z,26.75
2022-10-17T16:14:44.041Z,35.50
2022-10-17T16:17:15.115Z,29.25
2022-10-17T16:19:43.765Z,15.50
2022-10-17T16:22:19.608Z,24.00
2022-10-17T16:24:48.404Z,37.50
2022-10-17T16:27:21.166Z,31.50
2022-10-17T16:29:49.476Z,27.75
2022-10-17T16:32:26.638Z,30.75
2022-10-17T16:35:20.315Z,24.25
2022-10-17T16:38:16.832Z,24.00
2022-10-17T16:40:47.314Z,28.00
2022-10-17T16:43:18.984Z,28.50
2022-10-17T16:45:49.064Z,28.25
2022-10-17T16:48:19.080Z,40.80
2022-10-17T16:50:48.555Z,27.25
2022-10-17T16:53:16.896Z,31.75
2022-10-17T16:55:45.331Z,23.75
2022-10-17T16:58:13.692Z,27.00
2022-10-17T17:00:43.581Z,26.25
2022-10-17T17:03:11.893Z,19.75
2022-10-17T17:05:40.119Z,23.75
2022-10-17T17:08:12.532Z,24.00
2022-10-17T17:10:46.107Z,28.50
2022-10-17T17:13:14.721Z,18.00
2022-10-17T17:18:14.899Z,21.00
2022-10-17T17:20:43.586Z,29.00
2022-10-17T17:23:15.706Z,24.50
2022-10-17T17:25:48.101Z,28.50
2022-10-17T17:28:16.879Z,22.75
2022-10-17T17:30:46.852Z,29.00
2022-10-17T17:33:15.465Z,22.75
2022-10-17T17:35:45.426Z,28.25
2022-10-17T17:38:14.192Z,26.00
2022-10-17T17:40:50.443Z,27.00
2022-10-17T17:43:20.330Z,25.00
2022-10-17T17:45:51.857Z,28.75
2022-10-17T17:48:22.724Z,26.25
2022-10-17T17:50:53.146Z,21.00
2022-10-17T17:57:09.536Z,25.00
2022-10-17T17:59:43.243Z,23.75
2022-10-17T18:02:30.987Z,24.00
2022-10-17T18:04:59.804Z,26.50
2022-10-17T18:07:36.393Z,29.25
2022-10-17T18:10:08.522Z,28.75
2022-10-17T18:12:40.782Z,30.75
2022-10-17T18:15:22.033Z,32.50
2022-10-17T18:26:13.772Z,10.75
2022-10-17T20:21:03.773Z,40.00
2022-10-17T20:23:32.579Z,37.20
2022-10-17T20:26:08.069Z,36.00
2022-10-17T20:28:42.177Z,29.20
2022-10-17T20:31:11.661Z,31.60
2022-10-17T20:33:41.578Z,29.60
2022-10-17T20:36:12.437Z,31.40
2022-10-17T20:38:41.316Z,28.00
2022-10-17T20:41:10.494Z,26.50
2022-10-17T20:43:38.898Z,31.50
2022-10-17T20:46:22.809Z,28.00
2022-10-17T20:48:58.465Z,28.50
2022-10-17T20:51:28.247Z,27.00
2022-10-17T20:54:02.966Z,30.50
2022-10-17T20:56:32.789Z,27.25
2022-10-17T20:59:01.862Z,24.00
2022-10-17T21:01:31.080Z,29.25
2022-10-17T21:04:10.477Z,8.00
2022-10-17T21:06:47.655Z,14.00
2022-10-17T21:09:19.890Z,26.75
2022-10-17T21:11:48.453Z,26.75
2022-10-17T21:14:17.151Z,23.00
2022-10-17T21:16:45.761Z,26.25
2022-10-17T21:19:14.416Z,27.00
2022-10-17T21:21:44.405Z,24.50
2022-10-17T21:24:20.893Z,10.25
2022-10-17T21:26:50.401Z,28.75
2022-10-17T21:29:19.706Z,28.50
2022-10-17T21:31:48.097Z,23.75
2022-10-17T21:34:17.910Z,24.00
2022-10-17T21:36:46.451Z,24.50
2022-10-17T21:39:18.320Z,20.75
2022-10-17T21:41:46.709Z,26.00
2022-10-17T21:44:19.414Z,27.25
2022-10-17T21:46:48.685Z,23.50
2022-10-17T21:49:17.919Z,24.00
2022-10-17T21:51:47.638Z,27.25
2022-10-17T21:54:19.485Z,19.50
2022-10-17T21:56:48.093Z,26.50
2022-10-17T21:59:16.645Z,21.25
2022-10-17T22:01:45.979Z,27.50
2022-10-17T22:04:15.310Z,23.75
2022-10-17T22:06:44.548Z,23.75
2022-10-17T22:09:14.270Z,29.00
2022-10-17T22:11:45.707Z,27.50
2022-10-17T22:14:14.885Z,28.25
2022-10-17T22:16:45.020Z,26.50
2022-10-17T22:19:13.892Z,26.75
2022-10-17T22:21:42.277Z,26.00
2022-10-17T22:24:16.973Z,26.25
2022-10-17T22:26:47.486Z,18.50
2022-10-17T22:29:17.586Z,21.50
2022-10-17T22:31:46.004Z,30.25
2022-10-17T22:34:15.334Z,27.50
2022-10-17T22:36:43.744Z,23.75
2022-10-17T22:39:12.521Z,24.50
2022-10-17T22:41:40.812Z,26.25
2022-10-17T22:44:11.379Z,24.00
2022-10-17T22:46:39.589Z,26.25
2022-10-17T22:49:07.903Z,26.75
2022-10-17T22:51:36.352Z,25.50
2022-10-17T22:54:04.601Z,27.75
2022-10-17T22:56:32.812Z,22.50
2022-10-17T22:59:00.992Z,27.75
2022-10-17T23:01:30.651Z,26.50
2022-10-17T23:03:58.902Z,25.75
2022-10-17T23:06:27.193Z,22.75
2022-10-17T23:08:55.512Z,23.75
2022-10-17T23:11:24.057Z,25.25
2022-10-17T23:13:52.532Z,21.75
2022-10-17T23:16:20.751Z,19.50
2022-10-17T23:18:50.387Z,27.25
2022-10-17T23:21:18.611Z,21.25
2022-10-17T23:23:47.016Z,24.25
2022-10-17T23:26:15.721Z,24.25
2022-10-17T23:28:44.494Z,20.00
2022-10-17T23:31:13.721Z,25.75
2022-10-17T23:33:42.236Z,28.25
2022-10-17T23:36:12.618Z,25.80
2022-10-17T23:38:41.286Z,34.25
2022-10-17T23:41:09.780Z,29.60
2022-10-17T23:43:38.098Z,31.40
2022-10-17T23:46:07.241Z,34.50
2022-10-17T23:48:35.695Z,29.75
2022-10-17T23:51:04.571Z,32.20
2022-10-17T23:53:34.248Z,28.75
2022-10-17T23:56:02.490Z,29.60
2022-10-17T23:58:30.978Z,28.25
